world map with AOE marked

AOE - Airport

This information may not be accurate or current and is not valid for navigation or flight planning. No warranty of fitness for any purpose is made or implied.

flag of Turkey

Donate via PayPal

Additional information is available on the NEW Great Circle Mapper

Location
City:  Eskisehir, Eskisehir, Turkey
Name:Eskisehir Anadolu Airport
ICAO / IATA:LTBY / AOE

Details
Type:Airport (Aerodrome, Airfield)
Latitude:39°48'35"N (39.809858)
Longitude:30°31'10"E (30.519378)
Datum:WGS 1984
Elevation:2588 ft (789 m)
Runways:1
Longest:8261 × 98 ft (2518 × 30 m)

Time
Timezone:UTC+3 (DST+5)
Local Time:

Weather
METAR:LTBY  041350Z 09012KT CAVOK 14/01 Q1021
TAF:LTBY  (expired)

Related Locations
Nearby:
Farthest:RVV: 11328 mi / 18230 km
Raivavae, Tubuai Islands, Austral Islands, PF

Find:

   beyond  
but within

Other Information
Maps:
Sources:

  


 


Great Circle Mapper   Great Circle Mapper
Great Circle Mapper FAQ   Great Circle Mapper FAQ
  Karl's Home Page
KLSē   KLSē Home
   GC on Facebook
Airlines of the World   Airlines of the World
Donate via PayPal


Copyright © 2004-2019, Karl L. Swartz. All rights reserved.
All trademarks mentioned herein belong to their respective owners.

Please see credits for attribution and copyright information.

Karl Swartz <karl@kls2.com>
  Powered by FreeBSD
Valid HTML 4.01!
Labeled with ICRA
hCard Microformat
Geo Microformat